Time;durP1;ratioP1;P1;durP2;ratioP2;P2;SDS_P1;SDS_P2;PMS_P1;PMS_P2;Temp;Humidity;BMP_temperature;BMP_pressure;BME280_temperature;BME280_humidity;BME280_pressure;Samples;Min_cycle;Max_cycle;Signal;HPM_P1;HPM_P2
2023/03/06 00:00:37;;;;;;;13.23;7.93;;;;;5.50;97746.00;;;;4918013;29;20520;-58
2023/03/06 00:03:04;;;;;;;12.23;7.60;;;;;5.60;97754.00;;;;4918811;29;20052;-59
2023/03/06 00:05:31;;;;;;;15.05;8.90;;;;;5.60;97751.00;;;;4918805;29;20402;-59
2023/03/06 00:07:57;;;;;;;14.65;8.75;;;;;5.50;97754.00;;;;4918496;29;20048;-59
2023/03/06 00:10:27;;;;;;;12.43;7.75;;;;;5.40;97748.00;;;;4917914;29;20056;-59
2023/03/06 00:13:01;;;;;;;11.45;7.07;;;;;5.50;97742.00;;;;4918509;29;20056;-59
2023/03/06 00:15:28;;;;;;;11.77;7.93;;;;;5.50;97755.00;;;;4918575;29;20055;-59
2023/03/06 00:17:55;;;;;;;12.20;8.48;;;;;5.40;97745.00;;;;4918380;29;20058;-59
2023/03/06 00:20:23;;;;;;;12.38;8.13;;;;;5.40;97744.00;;;;4917630;29;20512;-59
2023/03/06 00:22:50;;;;;;;13.40;8.23;;;;;5.40;97747.00;;;;4917020;29;20060;-59
2023/03/06 00:25:19;;;;;;;11.65;8.13;;;;;5.40;97740.00;;;;4918495;29;20048;-59
2023/03/06 00:27:46;;;;;;;13.20;8.60;;;;;5.50;97741.00;;;;4918183;29;20040;-58
2023/03/06 00:30:16;;;;;;;13.25;7.75;;;;;5.40;97733.00;;;;4917704;29;20321;-59
2023/03/06 00:32:43;;;;;;;12.25;7.35;;;;;5.40;97737.00;;;;4918048;29;20063;-59
2023/03/06 00:35:11;;;;;;;12.27;7.97;;;;;5.40;97739.00;;;;4918029;29;20079;-59
2023/03/06 00:37:38;;;;;;;12.13;8.57;;;;;5.40;97738.00;;;;4915990;29;20044;-59
2023/03/06 00:40:06;;;;;;;11.95;7.43;;;;;5.40;97740.00;;;;4917315;29;20071;-59
2023/03/06 00:42:33;;;;;;;12.27;8.43;;;;;5.40;97738.00;;;;4917947;29;20586;-59
2023/03/06 00:44:59;;;;;;;13.82;7.82;;;;;5.50;97735.00;;;;4932929;29;20056;-59
2023/03/06 00:47:27;;;;;;;12.55;8.02;;;;;5.40;97723.00;;;;4918131;29;20040;-59
2023/03/06 00:49:55;;;;;;;12.90;7.65;;;;;5.50;97725.00;;;;4931715;29;20576;-59
2023/03/06 00:52:21;;;;;;;12.75;7.88;;;;;5.50;97722.00;;;;4917859;29;20047;-58
2023/03/06 00:54:48;;;;;;;15.70;8.93;;;;;5.50;97723.00;;;;4916482;29;20111;-58
2023/03/06 00:57:14;;;;;;;12.93;8.32;;;;;5.50;97711.00;;;;4916452;29;20044;-60
2023/03/06 00:59:41;;;;;;;15.07;9.38;;;;;5.50;97714.00;;;;4931880;29;20056;-59
2023/03/06 01:02:08;;;;;;;12.82;7.85;;;;;5.50;97696.00;;;;4916608;29;20056;-58
2023/03/06 01:04:35;;;;;;;12.05;7.97;;;;;5.50;97688.00;;;;4917508;29;20127;-58
2023/03/06 01:07:03;;;;;;;13.65;8.60;;;;;5.50;97694.00;;;;4917746;29;20042;-58
2023/03/06 01:09:29;;;;;;;12.80;8.20;;;;;5.50;97696.00;;;;4917502;29;20050;-59
2023/03/06 01:11:56;;;;;;;11.68;7.88;;;;;5.40;97673.00;;;;4916050;29;20052;-59
2023/03/06 01:14:23;;;;;;;15.20;8.75;;;;;5.40;97674.00;;;;4917466;29;20424;-58
2023/03/06 01:16:49;;;;;;;13.88;8.05;;;;;5.40;97678.00;;;;4917377;29;20040;-59
2023/03/06 01:19:17;;;;;;;13.20;9.65;;;;;5.40;97673.00;;;;4931947;29;20063;-59
2023/03/06 01:21:44;;;;;;;11.80;8.10;;;;;5.30;97671.00;;;;4915772;29;20458;-59
2023/03/06 01:24:10;;;;;;;19.45;11.30;;;;;5.30;97668.00;;;;4916105;29;20052;-58
2023/03/06 01:26:37;;;;;;;16.95;11.02;;;;;5.30;97662.00;;;;4916985;29;20430;-59
2023/03/06 01:29:04;;;;;;;13.00;8.15;;;;;5.30;97660.00;;;;4915687;29;20051;-59
2023/03/06 01:31:30;;;;;;;12.82;8.82;;;;;5.20;97660.00;;;;4914905;29;20048;-59
2023/03/06 01:33:57;;;;;;;11.57;8.15;;;;;5.20;97651.00;;;;4916798;29;20040;-58
2023/03/06 01:36:24;;;;;;;11.73;8.30;;;;;5.20;97652.00;;;;4917003;29;20513;-58
2023/03/06 01:38:50;;;;;;;13.85;8.48;;;;;5.20;97648.00;;;;4917344;29;20052;-58
2023/03/06 01:41:20;;;;;;;12.95;8.70;;;;;5.20;97647.00;;;;4916332;29;20072;-61
2023/03/06 01:43:47;;;;;;;11.85;8.13;;;;;5.20;97652.00;;;;4915840;29;20055;-59
2023/03/06 01:46:22;;;;;;;13.55;8.30;;;;;5.10;97645.00;;;;4916699;29;20050;-59
2023/03/06 01:48:53;;;;;;;13.27;8.18;;;;;5.10;97639.00;;;;4915743;29;20058;-59
2023/03/06 01:51:20;;;;;;;12.68;7.85;;;;;5.10;97634.00;;;;4915144;29;20056;-59
2023/03/06 01:53:49;;;;;;;14.35;8.63;;;;;5.10;97639.00;;;;4916646;29;20051;-57
2023/03/06 01:56:16;;;;;;;14.30;8.27;;;;;5.10;97644.00;;;;4916538;29;20051;-59
2023/03/06 01:58:43;;;;;;;14.80;8.70;;;;;5.10;97631.00;;;;4899491;29;20044;-58
2023/03/06 02:01:14;;;;;;;12.93;8.27;;;;;5.10;97623.00;;;;4930603;29;20059;-58
2023/03/06 02:03:42;;;;;;;12.30;8.60;;;;;5.10;97622.00;;;;4916730;29;20387;-58
2023/03/06 02:06:08;;;;;;;12.85;7.85;;;;;5.00;97624.00;;;;4916457;29;20048;-58
2023/03/06 02:08:35;;;;;;;12.55;8.50;;;;;5.00;97622.00;;;;4916478;29;20047;-58
2023/03/06 02:11:07;;;;;;;12.35;8.18;;;;;5.10;97622.00;;;;4914304;29;20052;-60
2023/03/06 02:13:35;;;;;;;14.43;8.70;;;;;5.00;97614.00;;;;4916061;29;20048;-57
2023/03/06 02:16:02;;;;;;;11.57;8.25;;;;;5.10;97619.00;;;;4916326;29;20532;-57
2023/03/06 02:18:29;;;;;;;16.88;9.35;;;;;5.10;97611.00;;;;4916539;29;20046;-57
2023/03/06 02:21:02;;;;;;;13.57;8.80;;;;;5.10;97604.00;;;;4915657;29;20404;-58
2023/03/06 02:23:37;;;;;;;13.82;8.75;;;;;5.20;97617.00;;;;4914944;29;20470;-58
2023/03/06 02:26:07;;;;;;;13.20;8.60;;;;;5.20;97616.00;;;;4930981;29;20131;-62
2023/03/06 02:28:33;;;;;;;17.10;8.77;;;;;5.20;97603.00;;;;4916118;29;20486;-61
2023/03/06 02:31:00;;;;;;;14.73;9.18;;;;;5.20;97602.00;;;;4914727;29;20425;-61
2023/03/06 02:33:28;;;;;;;15.75;9.13;;;;;5.20;97600.00;;;;4915023;29;20048;-61
2023/03/06 02:36:01;;;;;;;12.80;8.13;;;;;5.20;97593.00;;;;4916085;29;20036;-60
2023/03/06 02:38:35;;;;;;;16.90;8.85;;;;;5.20;97599.00;;;;4916258;29;20048;-61
2023/03/06 02:41:07;;;;;;;13.85;8.45;;;;;5.20;97593.00;;;;4914119;29;20103;-60
2023/03/06 02:43:37;;;;;;;13.00;8.73;;;;;5.30;97593.00;;;;4915998;29;20469;-60
2023/03/06 02:46:04;;;;;;;14.95;8.80;;;;;5.20;97588.00;;;;4914851;29;20096;-60
2023/03/06 02:48:31;;;;;;;13.10;8.40;;;;;5.20;97583.00;;;;4914778;29;20078;-61
2023/03/06 02:50:58;;;;;;;13.80;9.00;;;;;5.20;97590.00;;;;4929961;29;20111;-60
2023/03/06 02:53:25;;;;;;;15.23;9.07;;;;;5.30;97583.00;;;;4914915;29;20055;-62
2023/03/06 02:55:52;;;;;;;15.30;8.88;;;;;5.30;97574.00;;;;4930674;29;20048;-59
2023/03/06 02:58:19;;;;;;;17.45;8.50;;;;;5.30;97578.00;;;;4914711;29;20100;-61
2023/03/06 03:00:48;;;;;;;13.23;8.23;;;;;5.30;97569.00;;;;4915268;29;20099;-60
2023/03/06 03:03:15;;;;;;;11.60;8.00;;;;;5.30;97568.00;;;;4919108;29;20044;-60
2023/03/06 03:05:42;;;;;;;13.98;8.85;;;;;5.30;97570.00;;;;4935143;29;20056;-60
2023/03/06 03:08:18;;;;;;;13.48;7.78;;;;;5.30;97570.00;;;;4920712;29;20080;-60
2023/03/06 03:10:44;;;;;;;13.73;8.15;;;;;5.20;97569.00;;;;4921281;29;20139;-61
2023/03/06 03:13:12;;;;;;;13.45;8.90;;;;;5.20;97578.00;;;;4922072;29;20052;-61
2023/03/06 03:15:40;;;;;;;13.57;8.70;;;;;5.20;97566.00;;;;4919859;29;20469;-61
2023/03/06 03:18:09;;;;;;;14.35;9.30;;;;;5.30;97566.00;;;;4919712;29;20424;-61
2023/03/06 03:20:39;;;;;;;15.10;8.95;;;;;5.30;97564.00;;;;4918166;29;20071;-61
2023/03/06 03:23:06;;;;;;;15.50;9.38;;;;;5.30;97556.00;;;;4918670;29;20059;-59
2023/03/06 03:25:33;;;;;;;13.25;8.95;;;;;5.30;97561.00;;;;4919897;29;20044;-61
2023/03/06 03:27:59;;;;;;;16.58;9.05;;;;;5.30;97564.00;;;;4934390;29;20135;-62
2023/03/06 03:30:26;;;;;;;14.55;9.52;;;;;5.30;97564.00;;;;4933852;29;20151;-61
2023/03/06 03:32:53;;;;;;;15.48;8.80;;;;;5.30;97567.00;;;;4918721;29;20048;-60
2023/03/06 03:35:20;;;;;;;14.32;8.68;;;;;5.30;97561.00;;;;4934587;29;20059;-62
2023/03/06 03:37:46;;;;;;;13.43;8.63;;;;;5.30;97572.00;;;;4919788;29;20044;-62
2023/03/06 03:40:13;;;;;;;16.00;8.77;;;;;5.30;97560.00;;;;4933496;29;20051;-61
2023/03/06 03:42:40;;;;;;;15.88;9.50;;;;;5.30;97558.00;;;;4918188;29;20466;-61
2023/03/06 03:45:08;;;;;;;13.88;8.73;;;;;5.30;97560.00;;;;4934406;29;20056;-62
2023/03/06 03:47:35;;;;;;;14.93;9.40;;;;;5.30;97550.00;;;;4919870;29;20198;-61
2023/03/06 03:50:02;;;;;;;14.95;9.50;;;;;5.20;97551.00;;;;4902303;29;20052;-61
2023/03/06 03:52:28;;;;;;;14.02;9.20;;;;;5.20;97554.00;;;;4918537;29;20070;-62
2023/03/06 03:54:55;;;;;;;17.17;9.93;;;;;5.20;97546.00;;;;4934277;29;20048;-60
2023/03/06 03:57:23;;;;;;;12.52;8.23;;;;;5.20;97537.00;;;;4902595;29;20040;-63
2023/03/06 03:59:51;;;;;;;14.00;8.75;;;;;5.30;97538.00;;;;4917573;29;20611;-61
2023/03/06 04:02:25;;;;;;;15.77;9.43;;;;;5.30;97544.00;;;;4919420;29;20127;-61
2023/03/06 04:05:10;;;;;;;16.75;9.27;;;;;5.30;97533.00;;;;4933713;29;20057;-60
2023/03/06 04:07:36;;;;;;;15.98;9.05;;;;;5.30;97536.00;;;;4934405;29;20051;-61
2023/03/06 04:10:04;;;;;;;14.80;8.90;;;;;5.30;97539.00;;;;4917547;29;20517;-60
2023/03/06 04:12:31;;;;;;;16.80;9.63;;;;;5.20;97539.00;;;;4932162;29;20149;-61
2023/03/06 04:14:58;;;;;;;13.63;9.05;;;;;5.20;97523.00;;;;4902040;29;20490;-62
2023/03/06 04:17:25;;;;;;;14.38;8.70;;;;;5.10;97529.00;;;;4901619;29;20491;-62
2023/03/06 04:19:53;;;;;;;15.40;9.23;;;;;5.00;97524.00;;;;4916774;29;20453;-61
2023/03/06 04:22:20;;;;;;;16.23;9.75;;;;;5.10;97526.00;;;;4933126;29;20572;-61
2023/03/06 04:24:48;;;;;;;13.68;8.05;;;;;5.10;97525.00;;;;4918686;29;20048;-61
2023/03/06 04:27:16;;;;;;;14.80;9.13;;;;;5.10;97529.00;;;;4933200;29;20048;-59
2023/03/06 04:29:42;;;;;;;16.63;9.23;;;;;5.20;97513.00;;;;4901018;29;20048;-63
2023/03/06 04:32:09;;;;;;;13.68;9.13;;;;;5.20;97523.00;;;;4917161;29;20052;-61
2023/03/06 04:34:37;;;;;;;13.75;9.10;;;;;5.20;97516.00;;;;4917108;29;20044;-58
2023/03/06 04:37:05;;;;;;;15.00;9.85;;;;;5.20;97515.00;;;;4916950;29;20083;-62
2023/03/06 04:39:31;;;;;;;13.75;8.98;;;;;5.10;97505.00;;;;4916287;29;20056;-58
2023/03/06 04:41:58;;;;;;;15.68;9.05;;;;;5.20;97516.00;;;;4918167;29;20055;-61
2023/03/06 04:44:25;;;;;;;18.77;9.43;;;;;5.20;97511.00;;;;4918706;29;20412;-61
2023/03/06 04:46:51;;;;;;;19.33;10.00;;;;;5.20;97509.00;;;;4918563;29;20051;-61
2023/03/06 04:49:18;;;;;;;14.18;9.18;;;;;5.20;97503.00;;;;4918712;29;20406;-61
2023/03/06 04:51:44;;;;;;;13.88;8.93;;;;;5.30;97505.00;;;;4918483;29;20044;-62
2023/03/06 04:54:11;;;;;;;13.90;8.98;;;;;5.30;97505.00;;;;4917308;29;20059;-60
2023/03/06 04:56:37;;;;;;;14.45;8.95;;;;;5.30;97512.00;;;;4917605;29;20044;-61
2023/03/06 04:59:04;;;;;;;12.88;8.45;;;;;5.30;97521.00;;;;4918724;29;20100;-61
2023/03/06 05:01:30;;;;;;;15.95;9.73;;;;;5.20;97505.00;;;;4917278;29;20052;-62
2023/03/06 05:03:57;;;;;;;16.25;9.52;;;;;5.20;97511.00;;;;4917622;29;20509;-62
2023/03/06 05:06:23;;;;;;;14.07;9.05;;;;;5.30;97499.00;;;;4916451;29;20048;-61
2023/03/06 05:08:50;;;;;;;14.07;9.27;;;;;5.30;97502.00;;;;4917420;29;20052;-62
2023/03/06 05:11:16;;;;;;;12.57;8.85;;;;;5.20;97501.00;;;;4932022;29;20056;-61
2023/03/06 05:13:43;;;;;;;15.18;9.65;;;;;5.20;97501.00;;;;4932685;29;20056;-60
2023/03/06 05:16:09;;;;;;;15.50;9.50;;;;;5.20;97495.00;;;;4918753;29;20048;-60
2023/03/06 05:18:36;;;;;;;14.45;8.57;;;;;5.30;97498.00;;;;4919226;29;20560;-58
2023/03/06 05:21:04;;;;;;;11.45;7.57;;;;;5.30;97495.00;;;;4919647;29;20044;-58
2023/03/06 05:23:32;;;;;;;16.05;9.15;;;;;5.30;97503.00;;;;4918973;29;20193;-61
2023/03/06 05:25:59;;;;;;;13.85;8.52;;;;;5.30;97490.00;;;;4918244;29;20060;-61
2023/03/06 05:28:27;;;;;;;14.57;9.48;;;;;5.30;97484.00;;;;4918595;29;20052;-60
2023/03/06 05:30:53;;;;;;;16.85;9.02;;;;;5.30;97488.00;;;;4917677;29;20048;-61
2023/03/06 05:33:20;;;;;;;14.73;8.13;;;;;5.30;97484.00;;;;4918336;29;20557;-59
2023/03/06 05:35:47;;;;;;;15.85;9.10;;;;;5.30;97490.00;;;;4920624;29;20044;-60
2023/03/06 05:38:15;;;;;;;14.27;8.88;;;;;5.20;97488.00;;;;4920480;29;20153;-57
2023/03/06 05:40:42;;;;;;;14.65;9.23;;;;;5.30;97481.00;;;;4933740;29;20062;-60
2023/03/06 05:43:10;;;;;;;15.38;9.35;;;;;5.30;97490.00;;;;4919394;29;20085;-58
2023/03/06 05:45:38;;;;;;;12.95;8.80;;;;;5.20;97484.00;;;;4919796;29;20044;-60
2023/03/06 05:48:05;;;;;;;14.13;8.25;;;;;5.20;97486.00;;;;4918363;29;20056;-60
2023/03/06 05:50:32;;;;;;;13.80;9.48;;;;;5.20;97488.00;;;;4917315;29;20116;-59
2023/03/06 05:52:59;;;;;;;15.65;9.20;;;;;5.10;97472.00;;;;4934241;29;20052;-60
2023/03/06 05:55:25;;;;;;;14.52;9.85;;;;;5.10;97482.00;;;;4919644;29;20051;-59
2023/03/06 05:57:52;;;;;;;17.45;9.60;;;;;5.20;97481.00;;;;4918223;29;20072;-58
2023/03/06 06:00:19;;;;;;;16.88;8.77;;;;;5.20;97482.00;;;;4918369;29;20458;-59
2023/03/06 06:02:46;;;;;;;16.10;10.23;;;;;5.20;97485.00;;;;4919221;29;20045;-60
2023/03/06 06:05:13;;;;;;;18.95;9.95;;;;;5.20;97486.00;;;;4918703;29;20490;-59
2023/03/06 06:07:40;;;;;;;15.90;9.85;;;;;5.10;97491.00;;;;4933519;29;20528;-62
2023/03/06 06:10:09;;;;;;;16.55;10.02;;;;;5.10;97488.00;;;;4916805;29;20497;-58
2023/03/06 06:12:36;;;;;;;15.75;9.93;;;;;5.10;97481.00;;;;4916237;29;20052;-57
2023/03/06 06:15:03;;;;;;;14.93;9.93;;;;;5.10;97488.00;;;;4917311;29;20068;-58
2023/03/06 06:17:30;;;;;;;16.25;10.10;;;;;5.20;97482.00;;;;4917132;29;20586;-57
2023/03/06 06:19:56;;;;;;;17.55;11.52;;;;;5.10;97498.00;;;;4916619;29;20502;-57
2023/03/06 06:22:23;;;;;;;19.20;11.48;;;;;5.20;97495.00;;;;4915046;29;20075;-58
2023/03/06 06:24:50;;;;;;;16.05;10.25;;;;;5.20;97497.00;;;;4917048;29;20044;-59
2023/03/06 06:27:16;;;;;;;19.00;10.82;;;;;5.10;97498.00;;;;4916151;29;20062;-57
2023/03/06 06:29:43;;;;;;;18.00;11.35;;;;;5.20;97495.00;;;;4915808;29;20458;-57
2023/03/06 06:32:09;;;;;;;16.80;11.50;;;;;5.20;97494.00;;;;4914847;29;20099;-56
2023/03/06 06:34:36;;;;;;;16.00;10.35;;;;;5.20;97502.00;;;;4916052;29;20040;-61
2023/03/06 06:37:02;;;;;;;16.65;11.13;;;;;5.20;97502.00;;;;4914092;29;20060;-58
2023/03/06 06:39:29;;;;;;;20.25;12.57;;;;;5.10;97499.00;;;;4915596;29;20047;-56
2023/03/06 06:41:55;;;;;;;16.88;10.80;;;;;5.10;97494.00;;;;4915857;29;20048;-55
2023/03/06 06:44:42;;;;;;;21.45;13.30;;;;;5.00;97496.00;;;;4914892;29;20052;-59
2023/03/06 06:47:09;;;;;;;20.05;11.52;;;;;5.00;97488.00;;;;4916777;29;20493;-57
2023/03/06 06:49:51;;;;;;;20.65;11.27;;;;;5.00;97492.00;;;;4916161;29;20056;-59
2023/03/06 06:52:18;;;;;;;17.63;10.80;;;;;5.10;97494.00;;;;4915831;29;20048;-57
2023/03/06 06:54:44;;;;;;;15.35;10.25;;;;;5.10;97501.00;;;;4917012;29;20056;-60
2023/03/06 06:57:11;;;;;;;15.93;10.00;;;;;5.10;97505.00;;;;4916453;29;20048;-56
2023/03/06 06:59:38;;;;;;;22.77;11.07;;;;;5.10;97512.00;;;;4929838;29;20493;-56
2023/03/06 07:02:04;;;;;;;14.55;9.48;;;;;5.10;97502.00;;;;4916019;29;20048;-57
2023/03/06 07:04:31;;;;;;;15.40;10.25;;;;;5.00;97499.00;;;;4916378;29;20134;-57
2023/03/06 07:06:58;;;;;;;15.65;10.05;;;;;5.10;97498.00;;;;4916283;29;20088;-56
2023/03/06 07:09:25;;;;;;;14.30;10.05;;;;;5.10;97493.00;;;;4915670;29;20048;-58
2023/03/06 07:11:52;;;;;;;15.32;9.32;;;;;5.20;97495.00;;;;4930061;29;20076;-57
2023/03/06 07:14:18;;;;;;;13.40;9.40;;;;;5.20;97499.00;;;;4915606;29;20083;-56
2023/03/06 07:16:45;;;;;;;17.40;9.48;;;;;5.30;97497.00;;;;4915866;29;20561;-56
2023/03/06 07:19:11;;;;;;;16.17;9.45;;;;;5.30;97491.00;;;;4915488;29;20082;-58
2023/03/06 07:21:38;;;;;;;14.73;8.85;;;;;5.30;97496.00;;;;4915227;29;20486;-56
2023/03/06 07:24:04;;;;;;;14.77;8.75;;;;;5.30;97503.00;;;;4914445;29;20421;-56
2023/03/06 07:26:31;;;;;;;16.10;11.43;;;;;5.40;97490.00;;;;4915566;29;20518;-56
2023/03/06 07:29:00;;;;;;;18.80;10.10;;;;;5.50;97492.00;;;;4915598;29;20040;-56
2023/03/06 07:31:27;;;;;;;16.95;9.60;;;;;5.50;97495.00;;;;4915090;29;20125;-56
2023/03/06 07:33:54;;;;;;;13.95;9.63;;;;;5.60;97503.00;;;;4915777;29;20088;-58
2023/03/06 07:36:22;;;;;;;18.88;9.57;;;;;5.60;97501.00;;;;4915613;29;20048;-56
2023/03/06 07:38:48;;;;;;;13.93;9.63;;;;;5.60;97501.00;;;;4915513;29;20040;-56
2023/03/06 07:41:16;;;;;;;17.23;9.20;;;;;5.60;97501.00;;;;4914933;29;20040;-57
2023/03/06 07:43:43;;;;;;;14.82;9.88;;;;;5.60;97510.00;;;;4914365;29;20086;-59
2023/03/06 07:46:11;;;;;;;15.68;9.63;;;;;5.60;97501.00;;;;4898878;29;20048;-57
2023/03/06 07:48:39;;;;;;;16.02;9.40;;;;;5.60;97512.00;;;;4917532;29;20095;-58
2023/03/06 07:51:10;;;;;;;13.63;9.45;;;;;5.70;97509.00;;;;4918103;29;20055;-56
2023/03/06 07:53:37;;;;;;;15.73;10.00;;;;;5.80;97510.00;;;;4918914;29;20047;-56
2023/03/06 07:56:07;;;;;;;18.13;10.52;;;;;5.80;97515.00;;;;4933281;29;20497;-56
2023/03/06 07:58:36;;;;;;;14.25;8.93;;;;;5.80;97502.00;;;;4917604;29;20096;-59
2023/03/06 08:01:05;;;;;;;15.00;10.07;;;;;5.80;97502.00;;;;4917254;29;20440;-57
2023/03/06 08:03:32;;;;;;;14.63;9.45;;;;;5.70;97504.00;;;;4917483;29;20048;-56
2023/03/06 08:06:10;;;;;;;15.45;9.38;;;;;5.70;97511.00;;;;4918464;29;20493;-57
2023/03/06 08:08:38;;;;;;;15.48;9.73;;;;;5.60;97512.00;;;;4917465;29;20044;-57
2023/03/06 08:11:06;;;;;;;16.52;9.55;;;;;5.60;97514.00;;;;4917999;29;20048;-56
2023/03/06 08:13:33;;;;;;;16.70;9.50;;;;;5.50;97518.00;;;;4918382;29;20048;-57
2023/03/06 08:16:00;;;;;;;14.20;9.13;;;;;5.50;97521.00;;;;4918497;29;20055;-56
2023/03/06 08:18:27;;;;;;;14.35;9.70;;;;;5.50;97521.00;;;;4918595;29;20047;-58
2023/03/06 08:21:05;;;;;;;19.50;12.13;;;;;5.60;97528.00;;;;4917639;29;20052;-56
2023/03/06 08:23:32;;;;;;;15.75;10.05;;;;;5.60;97524.00;;;;4918256;29;20052;-55
2023/03/06 08:26:03;;;;;;;15.68;10.23;;;;;5.60;97533.00;;;;4918145;29;20048;-57
2023/03/06 08:28:30;;;;;;;17.92;10.00;;;;;5.70;97531.00;;;;4918191;29;20048;-58
2023/03/06 08:30:57;;;;;;;19.98;12.30;;;;;5.60;97532.00;;;;4917728;29;20048;-55
2023/03/06 08:33:24;;;;;;;17.35;10.82;;;;;5.60;97530.00;;;;4918599;29;20060;-54
2023/03/06 08:35:51;;;;;;;15.73;10.00;;;;;5.60;97528.00;;;;4918131;29;20461;-55
2023/03/06 08:38:18;;;;;;;18.85;10.02;;;;;5.60;97529.00;;;;4918037;29;20111;-56
2023/03/06 08:40:44;;;;;;;16.20;9.63;;;;;5.60;97538.00;;;;4917438;29;20064;-56
2023/03/06 08:43:11;;;;;;;18.42;10.65;;;;;5.70;97529.00;;;;4918195;29;20052;-56
2023/03/06 08:45:39;;;;;;;16.48;11.57;;;;;5.80;97532.00;;;;4917952;29;20074;-60
2023/03/06 08:48:06;;;;;;;22.08;12.40;;;;;5.90;97534.00;;;;4917966;29;20055;-57
2023/03/06 08:50:33;;;;;;;15.90;10.95;;;;;5.90;97531.00;;;;4917384;29;20040;-57
2023/03/06 08:52:59;;;;;;;18.40;11.35;;;;;6.00;97534.00;;;;4932613;29;20524;-57
2023/03/06 08:55:27;;;;;;;16.05;10.35;;;;;6.00;97534.00;;;;4917692;29;20091;-59
2023/03/06 08:57:53;;;;;;;18.20;11.68;;;;;6.00;97537.00;;;;4932225;29;20051;-56
2023/03/06 09:00:20;;;;;;;17.88;10.93;;;;;6.10;97531.00;;;;4916319;29;20044;-60
2023/03/06 09:02:46;;;;;;;14.25;9.73;;;;;6.10;97528.00;;;;4917857;29;20055;-57
2023/03/06 09:05:13;;;;;;;20.13;11.18;;;;;6.10;97541.00;;;;4917755;29;20173;-57
2023/03/06 09:07:39;;;;;;;19.40;12.20;;;;;6.00;97534.00;;;;4918192;29;20508;-57
2023/03/06 09:10:07;;;;;;;23.88;11.05;;;;;6.00;97530.00;;;;4916998;29;20099;-60
2023/03/06 09:12:33;;;;;;;17.02;10.65;;;;;5.90;97529.00;;;;4916828;29;20051;-56
2023/03/06 09:15:16;;;;;;;15.98;10.77;;;;;6.00;97545.00;;;;4917820;29;20054;-57
2023/03/06 09:17:42;;;;;;;18.00;11.40;;;;;6.00;97541.00;;;;4918316;29;20478;-58
2023/03/06 09:20:11;;;;;;;19.02;11.13;;;;;6.00;97542.00;;;;4916879;29;20044;-61
2023/03/06 09:22:38;;;;;;;17.80;10.98;;;;;5.90;97542.00;;;;4917480;29;20512;-62
2023/03/06 09:25:05;;;;;;;20.60;11.32;;;;;5.80;97540.00;;;;4917488;29;20473;-62
2023/03/06 09:27:31;;;;;;;18.13;10.98;;;;;5.80;97546.00;;;;4917119;29;20058;-61
2023/03/06 09:29:58;;;;;;;17.85;10.27;;;;;5.80;97550.00;;;;4916567;29;20044;-61
2023/03/06 09:32:25;;;;;;;16.25;10.98;;;;;5.70;97548.00;;;;4931581;29;20071;-60
2023/03/06 09:34:51;;;;;;;18.02;11.52;;;;;5.80;97540.00;;;;4916874;29;20056;-61
2023/03/06 09:37:19;;;;;;;18.50;11.85;;;;;5.90;97540.00;;;;4916971;29;20103;-61
2023/03/06 09:39:45;;;;;;;19.48;11.30;;;;;5.90;97540.00;;;;4916327;29;20068;-61
2023/03/06 09:42:17;;;;;;;20.17;13.25;;;;;5.70;97548.00;;;;4916772;29;20100;-61
2023/03/06 09:44:50;;;;;;;18.65;13.25;;;;;5.70;97541.00;;;;4915693;29;20107;-61
2023/03/06 09:47:55;;;;;;;27.30;20.10;;;;;5.70;97548.00;;;;4916881;29;20059;-61
2023/03/06 09:50:34;;;;;;;23.88;16.42;;;;;5.90;97547.00;;;;4908783;29;20056;-61
2023/03/06 09:53:15;;;;;;;20.90;14.73;;;;;6.10;97552.00;;;;4931425;29;20052;-61
2023/03/06 09:55:47;;;;;;;23.85;15.85;;;;;6.10;97544.00;;;;4916494;29;20099;-60
2023/03/06 09:58:19;;;;;;;22.48;15.23;;;;;6.30;97543.00;;;;4915603;29;20466;-59
2023/03/06 10:00:55;;;;;;;24.30;16.15;;;;;6.40;97540.00;;;;4916188;29;20055;-59
2023/03/06 10:03:46;;;;;;;22.50;16.55;;;;;6.50;97540.00;;;;4916783;29;20092;-59
2023/03/06 10:06:19;;;;;;;25.17;15.95;;;;;6.50;97539.00;;;;4916947;29;20164;-61
2023/03/06 10:09:01;;;;;;;22.35;15.80;;;;;6.50;97549.00;;;;4931581;29;20056;-61
2023/03/06 10:11:57;;;;;;;20.92;14.52;;;;;6.60;97541.00;;;;4914977;29;20051;-60
2023/03/06 10:14:36;;;;;;;21.63;15.38;;;;;6.50;97547.00;;;;4916258;29;20055;-60
2023/03/06 10:17:05;;;;;;;25.45;16.45;;;;;6.40;97537.00;;;;4916316;29;20553;-62
2023/03/06 10:19:36;;;;;;;23.10;15.15;;;;;6.50;97539.00;;;;4915642;29;20040;-61
2023/03/06 10:22:29;;;;;;;21.35;14.48;;;;;6.60;97541.00;;;;4916390;29;20044;-61
2023/03/06 10:25:05;;;;;;;22.85;14.85;;;;;6.50;97542.00;;;;4909902;29;20135;-61
2023/03/06 10:27:44;;;;;;;27.00;15.68;;;;;6.50;97541.00;;;;4916346;29;20498;-61
2023/03/06 10:30:24;;;;;;;24.83;15.07;;;;;6.40;97547.00;;;;4914369;29;20052;-61
2023/03/06 10:32:55;;;;;;;24.23;15.38;;;;;6.30;97544.00;;;;4916071;29;20087;-62
2023/03/06 10:35:27;;;;;;;23.92;15.45;;;;;6.30;97553.00;;;;4916264;29;20048;-61
2023/03/06 10:38:11;;;;;;;24.15;16.85;;;;;6.30;97548.00;;;;4916489;29;20502;-61
2023/03/06 10:40:48;;;;;;;24.15;16.02;;;;;6.40;97541.00;;;;4915615;29;20048;-61
2023/03/06 10:43:15;;;;;;;25.70;16.58;;;;;6.50;97540.00;;;;4916213;29;20052;-60
2023/03/06 10:45:48;;;;;;;26.73;16.23;;;;;6.70;97543.00;;;;4916079;29;20104;-61
2023/03/06 10:48:19;;;;;;;29.98;17.65;;;;;6.80;97538.00;;;;4916078;29;20052;-59
2023/03/06 10:50:46;;;;;;;34.50;17.55;;;;;6.90;97545.00;;;;4929739;29;20147;-61
2023/03/06 10:53:25;;;;;;;29.98;17.60;;;;;7.00;97538.00;;;;4916026;29;20111;-62
2023/03/06 10:55:57;;;;;;;33.58;17.40;;;;;7.10;97536.00;;;;4914741;29;20040;-60
2023/03/06 10:58:25;;;;;;;29.10;16.05;;;;;7.20;97540.00;;;;4930689;29;20048;-61
2023/03/06 11:01:21;;;;;;;24.20;16.02;;;;;7.20;97538.00;;;;4915296;29;20040;-61
2023/03/06 11:03:48;;;;;;;24.35;16.42;;;;;7.20;97534.00;;;;4931102;29;20478;-61
2023/03/06 11:06:30;;;;;;;22.73;14.85;;;;;7.50;97535.00;;;;4916607;29;20103;-61
2023/03/06 11:09:14;;;;;;;21.90;15.02;;;;;7.60;97542.00;;;;4916582;29;20044;-62
2023/03/06 11:11:41;;;;;;;21.52;15.30;;;;;7.60;97537.00;;;;4915667;29;20526;-61
2023/03/06 11:14:17;;;;;;;23.38;15.13;;;;;7.60;97532.00;;;;4930544;29;20048;-62
2023/03/06 11:16:52;;;;;;;27.23;17.05;;;;;7.80;97540.00;;;;4915830;29;20059;-61
2023/03/06 11:19:26;;;;;;;23.70;15.63;;;;;7.80;97538.00;;;;4930543;29;20048;-61
2023/03/06 11:22:00;;;;;;;;;;;;;7.90;97532.00;;;;4916081;29;20048;-61
2023/03/06 11:24:34;;;;;;;23.40;14.98;;;;;7.90;97537.00;;;;4920350;29;19934;-61
2023/03/06 11:27:22;;;;;;;23.45;14.85;;;;;8.00;97529.00;;;;4920013;29;20048;-61
2023/03/06 11:29:51;;;;;;;20.73;13.65;;;;;8.00;97533.00;;;;4919036;29;20047;-61
2023/03/06 11:32:25;;;;;;;24.15;15.18;;;;;7.90;97537.00;;;;4919288;29;20125;-60
2023/03/06 11:34:57;;;;;;;18.55;13.20;;;;;7.90;97529.00;;;;4919443;29;20048;-62
2023/03/06 11:37:46;;;;;;;27.58;14.63;;;;;7.90;97529.00;;;;4917937;29;20052;-62
2023/03/06 11:40:35;;;;;;;19.88;13.43;;;;;7.90;97529.00;;;;4917376;29;20040;-61
2023/03/06 11:43:14;;;;;;;21.08;13.80;;;;;7.80;97538.00;;;;4919364;29;20481;-62
2023/03/06 11:45:42;;;;;;;20.10;13.77;;;;;7.70;97533.00;;;;4919260;29;20457;-62
2023/03/06 11:48:12;;;;;;;38.53;15.20;;;;;7.60;97528.00;;;;4918133;29;20052;-60
2023/03/06 11:50:43;;;;;;;20.77;12.25;;;;;7.50;97529.00;;;;4932907;29;20052;-60
2023/03/06 11:53:21;;;;;;;19.23;10.80;;;;;7.30;97519.00;;;;4917791;29;20048;-60
2023/03/06 11:56:07;;;;;;;17.05;10.77;;;;;7.00;97528.00;;;;4918984;29;20051;-60
2023/03/06 11:58:55;;;;;;;20.15;13.02;;;;;6.90;97525.00;;;;4917709;29;20076;-60
2023/03/06 12:01:35;;;;;;;19.52;11.45;;;;;6.90;97519.00;;;;4918309;29;20040;-61
2023/03/06 12:04:25;;;;;;;23.92;12.30;;;;;7.00;97505.00;;;;4917733;29;20048;-60
2023/03/06 12:07:31;;;;;;;18.35;12.13;;;;;7.10;97511.00;;;;4918930;29;20048;-59
2023/03/06 12:10:15;;;;;;;19.13;11.98;;;;;7.10;97525.00;;;;4918201;29;20131;-59
2023/03/06 12:12:59;;;;;;;14.57;9.88;;;;;7.00;97515.00;;;;4918633;29;20044;-59
2023/03/06 12:15:47;;;;;;;15.68;10.88;;;;;6.90;97510.00;;;;4917736;29;20048;-59
2023/03/06 12:18:26;;;;;;;14.77;9.23;;;;;6.90;97520.00;;;;4918403;29;20453;-59
2023/03/06 12:20:59;;;;;;;13.73;8.85;;;;;6.90;97520.00;;;;4918083;29;20041;-59
2023/03/06 12:23:41;;;;;;;11.70;7.40;;;;;6.90;97522.00;;;;4918332;29;20044;-59
2023/03/06 12:26:32;;;;;;;12.20;7.60;;;;;6.80;97510.00;;;;4918238;29;20048;-60